sensor_id;sensor_type;location;lat;lon;timestamp;P1;durP1;ratioP1;P2;durP2;ratioP2
72924;SDS011;61070;50.794;7.054;2023-06-14T00:00:30;9.23;;;5.38;;
72924;SDS011;61070;50.794;7.054;2023-06-14T00:02:56;10.23;;;5.72;;
72924;SDS011;61070;50.794;7.054;2023-06-14T00:05:21;9.18;;;5.45;;
72924;SDS011;61070;50.794;7.054;2023-06-14T00:07:48;12.45;;;6.10;;
72924;SDS011;61070;50.794;7.054;2023-06-14T00:10:14;6.57;;;5.15;;
72924;SDS011;61070;50.794;7.054;2023-06-14T00:12:40;8.95;;;5.35;;
72924;SDS011;61070;50.794;7.054;2023-06-14T00:15:06;9.45;;;5.43;;
72924;SDS011;61070;50.794;7.054;2023-06-14T00:17:32;11.80;;;5.65;;
72924;SDS011;61070;50.794;7.054;2023-06-14T00:19:59;7.68;;;5.55;;
72924;SDS011;61070;50.794;7.054;2023-06-14T00:22:25;12.85;;;6.40;;
72924;SDS011;61070;50.794;7.054;2023-06-14T00:24:51;10.50;;;5.65;;
72924;SDS011;61070;50.794;7.054;2023-06-14T00:27:17;10.43;;;5.32;;
72924;SDS011;61070;50.794;7.054;2023-06-14T00:29:42;9.70;;;6.38;;
72924;SDS011;61070;50.794;7.054;2023-06-14T00:32:07;12.07;;;6.00;;
72924;SDS011;61070;50.794;7.054;2023-06-14T00:34:33;11.68;;;5.40;;
72924;SDS011;61070;50.794;7.054;2023-06-14T00:36:58;11.68;;;6.20;;
72924;SDS011;61070;50.794;7.054;2023-06-14T00:39:24;12.10;;;5.75;;
72924;SDS011;61070;50.794;7.054;2023-06-14T00:41:50;7.43;;;5.63;;
72924;SDS011;61070;50.794;7.054;2023-06-14T00:44:15;11.10;;;5.95;;
72924;SDS011;61070;50.794;7.054;2023-06-14T00:46:42;6.75;;;5.15;;
72924;SDS011;61070;50.794;7.054;2023-06-14T00:49:07;7.85;;;5.32;;
72924;SDS011;61070;50.794;7.054;2023-06-14T00:51:33;6.82;;;5.70;;
72924;SDS011;61070;50.794;7.054;2023-06-14T00:53:59;6.82;;;5.75;;
72924;SDS011;61070;50.794;7.054;2023-06-14T00:56:24;8.00;;;5.63;;
72924;SDS011;61070;50.794;7.054;2023-06-14T00:58:50;10.85;;;6.07;;
72924;SDS011;61070;50.794;7.054;2023-06-14T01:01:16;12.57;;;5.45;;
72924;SDS011;61070;50.794;7.054;2023-06-14T01:03:41;13.52;;;5.65;;
72924;SDS011;61070;50.794;7.054;2023-06-14T01:08:43;6.93;;;4.80;;
72924;SDS011;61070;50.794;7.054;2023-06-14T01:11:18;9.45;;;6.00;;
72924;SDS011;61070;50.794;7.054;2023-06-14T01:13:51;9.15;;;5.97;;
72924;SDS011;61070;50.794;7.054;2023-06-14T01:16:17;7.68;;;5.50;;
72924;SDS011;61070;50.794;7.054;2023-06-14T01:18:43;8.57;;;5.50;;
72924;SDS011;61070;50.794;7.054;2023-06-14T01:21:23;12.48;;;5.45;;
72924;SDS011;61070;50.794;7.054;2023-06-14T01:23:49;9.25;;;5.70;;
72924;SDS011;61070;50.794;7.054;2023-06-14T01:26:18;9.55;;;5.47;;
72924;SDS011;61070;50.794;7.054;2023-06-14T01:28:47;9.38;;;5.90;;
72924;SDS011;61070;50.794;7.054;2023-06-14T01:31:16;11.07;;;5.93;;
72924;SDS011;61070;50.794;7.054;2023-06-14T01:33:44;8.18;;;5.80;;
72924;SDS011;61070;50.794;7.054;2023-06-14T01:36:11;8.68;;;5.50;;
72924;SDS011;61070;50.794;7.054;2023-06-14T01:38:37;10.00;;;6.20;;
72924;SDS011;61070;50.794;7.054;2023-06-14T01:41:04;14.25;;;6.30;;
72924;SDS011;61070;50.794;7.054;2023-06-14T01:43:31;15.40;;;7.10;;
72924;SDS011;61070;50.794;7.054;2023-06-14T01:45:56;8.63;;;6.38;;
72924;SDS011;61070;50.794;7.054;2023-06-14T01:48:22;9.63;;;6.03;;
72924;SDS011;61070;50.794;7.054;2023-06-14T01:50:48;10.13;;;6.72;;
72924;SDS011;61070;50.794;7.054;2023-06-14T01:53:15;17.05;;;6.57;;
72924;SDS011;61070;50.794;7.054;2023-06-14T01:55:41;8.68;;;6.32;;
72924;SDS011;61070;50.794;7.054;2023-06-14T01:58:09;7.38;;;5.68;;
72924;SDS011;61070;50.794;7.054;2023-06-14T02:00:35;11.85;;;6.32;;
72924;SDS011;61070;50.794;7.054;2023-06-14T02:03:00;10.75;;;6.10;;
72924;SDS011;61070;50.794;7.054;2023-06-14T02:05:26;8.75;;;5.75;;
72924;SDS011;61070;50.794;7.054;2023-06-14T02:07:51;9.15;;;5.85;;
72924;SDS011;61070;50.794;7.054;2023-06-14T02:10:18;10.90;;;6.13;;
72924;SDS011;61070;50.794;7.054;2023-06-14T02:12:44;11.82;;;6.53;;
72924;SDS011;61070;50.794;7.054;2023-06-14T02:15:09;8.75;;;6.00;;
72924;SDS011;61070;50.794;7.054;2023-06-14T02:17:41;8.65;;;6.07;;
72924;SDS011;61070;50.794;7.054;2023-06-14T02:20:07;7.68;;;6.25;;
72924;SDS011;61070;50.794;7.054;2023-06-14T02:22:33;8.77;;;6.15;;
72924;SDS011;61070;50.794;7.054;2023-06-14T02:24:58;8.40;;;5.93;;
72924;SDS011;61070;50.794;7.054;2023-06-14T02:27:24;11.02;;;6.05;;
72924;SDS011;61070;50.794;7.054;2023-06-14T02:29:49;8.27;;;5.43;;
72924;SDS011;61070;50.794;7.054;2023-06-14T02:32:14;10.40;;;6.03;;
72924;SDS011;61070;50.794;7.054;2023-06-14T02:34:39;10.93;;;6.75;;
72924;SDS011;61070;50.794;7.054;2023-06-14T02:37:06;8.05;;;5.85;;
72924;SDS011;61070;50.794;7.054;2023-06-14T02:39:31;10.48;;;6.18;;
72924;SDS011;61070;50.794;7.054;2023-06-14T02:41:57;13.43;;;6.55;;
72924;SDS011;61070;50.794;7.054;2023-06-14T02:44:25;13.07;;;6.03;;
72924;SDS011;61070;50.794;7.054;2023-06-14T02:46:52;9.45;;;5.53;;
72924;SDS011;61070;50.794;7.054;2023-06-14T02:49:18;12.02;;;6.72;;
72924;SDS011;61070;50.794;7.054;2023-06-14T02:51:44;11.48;;;6.25;;
72924;SDS011;61070;50.794;7.054;2023-06-14T02:54:09;8.68;;;6.22;;
72924;SDS011;61070;50.794;7.054;2023-06-14T02:56:35;10.90;;;6.47;;
72924;SDS011;61070;50.794;7.054;2023-06-14T02:59:01;15.73;;;6.07;;
72924;SDS011;61070;50.794;7.054;2023-06-14T03:01:27;9.88;;;6.47;;
72924;SDS011;61070;50.794;7.054;2023-06-14T03:03:59;13.18;;;7.20;;
72924;SDS011;61070;50.794;7.054;2023-06-14T03:06:26;9.43;;;6.50;;
72924;SDS011;61070;50.794;7.054;2023-06-14T03:08:53;7.65;;;5.85;;
72924;SDS011;61070;50.794;7.054;2023-06-14T03:11:19;13.18;;;6.68;;
72924;SDS011;61070;50.794;7.054;2023-06-14T03:13:45;10.18;;;6.38;;
72924;SDS011;61070;50.794;7.054;2023-06-14T03:16:11;11.60;;;6.55;;
72924;SDS011;61070;50.794;7.054;2023-06-14T03:18:37;7.90;;;5.35;;
72924;SDS011;61070;50.794;7.054;2023-06-14T03:21:02;12.80;;;7.28;;
72924;SDS011;61070;50.794;7.054;2023-06-14T03:23:28;9.30;;;6.82;;
72924;SDS011;61070;50.794;7.054;2023-06-14T03:25:53;10.85;;;6.30;;
72924;SDS011;61070;50.794;7.054;2023-06-14T03:28:18;10.63;;;7.63;;
72924;SDS011;61070;50.794;7.054;2023-06-14T03:30:43;11.25;;;6.55;;
72924;SDS011;61070;50.794;7.054;2023-06-14T03:33:09;10.52;;;6.97;;
72924;SDS011;61070;50.794;7.054;2023-06-14T03:35:35;14.68;;;6.93;;
72924;SDS011;61070;50.794;7.054;2023-06-14T03:38:01;17.13;;;7.35;;
72924;SDS011;61070;50.794;7.054;2023-06-14T03:40:27;8.48;;;5.78;;
72924;SDS011;61070;50.794;7.054;2023-06-14T03:42:55;13.30;;;7.32;;
72924;SDS011;61070;50.794;7.054;2023-06-14T03:45:21;12.93;;;6.35;;
72924;SDS011;61070;50.794;7.054;2023-06-14T03:47:47;16.23;;;6.40;;
72924;SDS011;61070;50.794;7.054;2023-06-14T03:50:12;16.33;;;7.65;;
72924;SDS011;61070;50.794;7.054;2023-06-14T03:52:38;14.00;;;6.85;;
72924;SDS011;61070;50.794;7.054;2023-06-14T03:55:03;10.20;;;6.53;;
72924;SDS011;61070;50.794;7.054;2023-06-14T03:57:29;11.10;;;6.50;;
72924;SDS011;61070;50.794;7.054;2023-06-14T03:59:55;14.77;;;7.10;;
72924;SDS011;61070;50.794;7.054;2023-06-14T04:02:20;10.15;;;6.30;;
72924;SDS011;61070;50.794;7.054;2023-06-14T04:04:45;12.38;;;6.72;;
72924;SDS011;61070;50.794;7.054;2023-06-14T04:07:11;18.20;;;6.35;;
72924;SDS011;61070;50.794;7.054;2023-06-14T04:09:38;13.70;;;6.75;;
72924;SDS011;61070;50.794;7.054;2023-06-14T04:12:04;10.38;;;6.60;;
72924;SDS011;61070;50.794;7.054;2023-06-14T04:14:30;15.73;;;6.90;;
72924;SDS011;61070;50.794;7.054;2023-06-14T04:16:57;8.85;;;6.80;;
72924;SDS011;61070;50.794;7.054;2023-06-14T04:19:23;13.00;;;7.07;;
72924;SDS011;61070;50.794;7.054;2023-06-14T04:21:48;14.07;;;7.05;;
72924;SDS011;61070;50.794;7.054;2023-06-14T04:24:14;9.82;;;6.90;;
72924;SDS011;61070;50.794;7.054;2023-06-14T04:26:40;12.57;;;6.82;;
72924;SDS011;61070;50.794;7.054;2023-06-14T04:29:06;11.02;;;7.63;;
72924;SDS011;61070;50.794;7.054;2023-06-14T04:31:31;9.40;;;6.45;;
72924;SDS011;61070;50.794;7.054;2023-06-14T04:34:02;11.15;;;6.93;;
72924;SDS011;61070;50.794;7.054;2023-06-14T04:36:30;12.68;;;6.60;;
72924;SDS011;61070;50.794;7.054;2023-06-14T04:39:04;13.77;;;6.97;;
72924;SDS011;61070;50.794;7.054;2023-06-14T04:41:30;9.60;;;6.22;;
72924;SDS011;61070;50.794;7.054;2023-06-14T04:43:57;10.63;;;6.35;;
72924;SDS011;61070;50.794;7.054;2023-06-14T04:46:23;14.45;;;6.50;;
72924;SDS011;61070;50.794;7.054;2023-06-14T04:48:49;15.18;;;6.93;;
72924;SDS011;61070;50.794;7.054;2023-06-14T04:51:15;12.70;;;6.85;;
72924;SDS011;61070;50.794;7.054;2023-06-14T04:53:41;16.77;;;7.55;;
72924;SDS011;61070;50.794;7.054;2023-06-14T04:56:07;11.95;;;7.20;;
72924;SDS011;61070;50.794;7.054;2023-06-14T04:58:32;14.00;;;7.43;;
72924;SDS011;61070;50.794;7.054;2023-06-14T05:00:57;13.60;;;8.20;;
72924;SDS011;61070;50.794;7.054;2023-06-14T05:03:24;10.95;;;7.53;;
72924;SDS011;61070;50.794;7.054;2023-06-14T05:05:50;14.80;;;7.47;;
72924;SDS011;61070;50.794;7.054;2023-06-14T05:08:15;15.80;;;7.88;;
72924;SDS011;61070;50.794;7.054;2023-06-14T05:10:41;11.20;;;6.40;;
72924;SDS011;61070;50.794;7.054;2023-06-14T05:13:06;11.20;;;7.20;;
72924;SDS011;61070;50.794;7.054;2023-06-14T05:15:32;13.35;;;6.97;;
72924;SDS011;61070;50.794;7.054;2023-06-14T05:17:57;14.95;;;6.97;;
72924;SDS011;61070;50.794;7.054;2023-06-14T05:20:23;9.75;;;6.45;;
72924;SDS011;61070;50.794;7.054;2023-06-14T05:22:52;9.60;;;6.18;;
72924;SDS011;61070;50.794;7.054;2023-06-14T05:25:18;7.10;;;5.30;;
72924;SDS011;61070;50.794;7.054;2023-06-14T05:27:47;14.57;;;5.63;;
72924;SDS011;61070;50.794;7.054;2023-06-14T05:30:13;14.77;;;6.05;;
72924;SDS011;61070;50.794;7.054;2023-06-14T05:32:40;14.07;;;6.53;;
72924;SDS011;61070;50.794;7.054;2023-06-14T05:35:05;13.48;;;6.05;;
72924;SDS011;61070;50.794;7.054;2023-06-14T05:37:31;12.23;;;5.97;;
72924;SDS011;61070;50.794;7.054;2023-06-14T05:39:57;13.18;;;6.05;;
72924;SDS011;61070;50.794;7.054;2023-06-14T05:42:22;11.15;;;5.30;;
72924;SDS011;61070;50.794;7.054;2023-06-14T05:44:47;9.32;;;5.20;;
72924;SDS011;61070;50.794;7.054;2023-06-14T05:47:12;14.75;;;6.15;;
72924;SDS011;61070;50.794;7.054;2023-06-14T05:49:38;21.50;;;5.93;;
72924;SDS011;61070;50.794;7.054;2023-06-14T05:52:03;20.05;;;7.63;;
72924;SDS011;61070;50.794;7.054;2023-06-14T05:54:29;15.07;;;5.25;;
72924;SDS011;61070;50.794;7.054;2023-06-14T05:56:55;11.45;;;4.65;;
72924;SDS011;61070;50.794;7.054;2023-06-14T05:59:20;17.88;;;5.40;;
72924;SDS011;61070;50.794;7.054;2023-06-14T06:01:45;13.00;;;5.53;;
72924;SDS011;61070;50.794;7.054;2023-06-14T06:04:11;11.38;;;5.20;;
72924;SDS011;61070;50.794;7.054;2023-06-14T06:06:36;18.35;;;5.93;;
72924;SDS011;61070;50.794;7.054;2023-06-14T06:09:02;14.20;;;5.20;;
72924;SDS011;61070;50.794;7.054;2023-06-14T06:11:27;9.57;;;4.43;;
72924;SDS011;61070;50.794;7.054;2023-06-14T06:13:52;11.93;;;5.57;;
72924;SDS011;61070;50.794;7.054;2023-06-14T06:16:18;10.90;;;4.57;;
72924;SDS011;61070;50.794;7.054;2023-06-14T06:18:43;17.08;;;6.00;;
72924;SDS011;61070;50.794;7.054;2023-06-14T06:21:08;7.07;;;4.32;;
72924;SDS011;61070;50.794;7.054;2023-06-14T06:23:33;13.57;;;4.18;;
72924;SDS011;61070;50.794;7.054;2023-06-14T06:25:59;6.65;;;4.07;;
72924;SDS011;61070;50.794;7.054;2023-06-14T06:28:24;10.10;;;4.13;;
72924;SDS011;61070;50.794;7.054;2023-06-14T06:30:49;10.07;;;4.53;;
72924;SDS011;61070;50.794;7.054;2023-06-14T06:33:15;7.57;;;3.50;;
72924;SDS011;61070;50.794;7.054;2023-06-14T06:35:41;8.50;;;3.90;;
72924;SDS011;61070;50.794;7.054;2023-06-14T06:38:06;15.68;;;4.32;;
72924;SDS011;61070;50.794;7.054;2023-06-14T06:40:31;13.18;;;4.50;;
72924;SDS011;61070;50.794;7.054;2023-06-14T06:42:56;9.23;;;3.97;;
72924;SDS011;61070;50.794;7.054;2023-06-14T06:45:22;11.10;;;3.55;;
72924;SDS011;61070;50.794;7.054;2023-06-14T06:47:48;8.90;;;3.83;;
72924;SDS011;61070;50.794;7.054;2023-06-14T06:50:14;9.90;;;4.57;;
72924;SDS011;61070;50.794;7.054;2023-06-14T06:52:39;11.38;;;3.72;;
72924;SDS011;61070;50.794;7.054;2023-06-14T06:55:05;7.72;;;3.80;;
72924;SDS011;61070;50.794;7.054;2023-06-14T06:57:30;8.27;;;3.97;;
72924;SDS011;61070;50.794;7.054;2023-06-14T06:59:56;6.68;;;3.15;;
72924;SDS011;61070;50.794;7.054;2023-06-14T07:02:22;9.32;;;3.70;;
72924;SDS011;61070;50.794;7.054;2023-06-14T07:04:47;6.13;;;4.03;;
72924;SDS011;61070;50.794;7.054;2023-06-14T07:07:12;12.07;;;3.47;;
72924;SDS011;61070;50.794;7.054;2023-06-14T07:09:38;18.38;;;4.65;;
72924;SDS011;61070;50.794;7.054;2023-06-14T07:12:03;12.38;;;3.42;;
72924;SDS011;61070;50.794;7.054;2023-06-14T07:14:29;10.70;;;3.55;;
72924;SDS011;61070;50.794;7.054;2023-06-14T07:16:55;8.82;;;3.58;;
72924;SDS011;61070;50.794;7.054;2023-06-14T07:19:20;8.20;;;4.05;;
72924;SDS011;61070;50.794;7.054;2023-06-14T07:21:45;9.13;;;3.25;;
72924;SDS011;61070;50.794;7.054;2023-06-14T07:24:11;9.45;;;3.75;;
72924;SDS011;61070;50.794;7.054;2023-06-14T07:26:36;10.07;;;3.90;;
72924;SDS011;61070;50.794;7.054;2023-06-14T07:29:02;5.82;;;3.20;;
72924;SDS011;61070;50.794;7.054;2023-06-14T07:31:27;6.05;;;3.45;;
72924;SDS011;61070;50.794;7.054;2023-06-14T07:33:53;12.40;;;3.40;;
72924;SDS011;61070;50.794;7.054;2023-06-14T07:36:18;16.30;;;4.20;;
72924;SDS011;61070;50.794;7.054;2023-06-14T07:38:43;8.25;;;3.55;;
72924;SDS011;61070;50.794;7.054;2023-06-14T07:41:09;11.27;;;3.55;;
72924;SDS011;61070;50.794;7.054;2023-06-14T07:43:34;5.97;;;3.63;;
72924;SDS011;61070;50.794;7.054;2023-06-14T07:46:00;11.77;;;3.22;;
72924;SDS011;61070;50.794;7.054;2023-06-14T07:48:25;7.57;;;3.45;;
72924;SDS011;61070;50.794;7.054;2023-06-14T07:50:51;5.80;;;3.25;;
72924;SDS011;61070;50.794;7.054;2023-06-14T07:53:16;16.02;;;3.40;;
72924;SDS011;61070;50.794;7.054;2023-06-14T07:55:41;8.80;;;3.05;;
72924;SDS011;61070;50.794;7.054;2023-06-14T07:58:08;7.35;;;2.90;;
72924;SDS011;61070;50.794;7.054;2023-06-14T08:00:33;7.68;;;2.92;;
72924;SDS011;61070;50.794;7.054;2023-06-14T08:02:59;6.22;;;2.88;;
72924;SDS011;61070;50.794;7.054;2023-06-14T08:05:24;17.13;;;3.25;;
72924;SDS011;61070;50.794;7.054;2023-06-14T08:07:54;9.23;;;2.85;;
72924;SDS011;61070;50.794;7.054;2023-06-14T08:10:20;6.15;;;3.00;;
72924;SDS011;61070;50.794;7.054;2023-06-14T08:12:45;8.52;;;3.05;;
72924;SDS011;61070;50.794;7.054;2023-06-14T08:15:11;7.47;;;2.50;;
72924;SDS011;61070;50.794;7.054;2023-06-14T08:17:36;4.10;;;2.17;;
72924;SDS011;61070;50.794;7.054;2023-06-14T08:20:02;6.43;;;1.85;;
72924;SDS011;61070;50.794;7.054;2023-06-14T08:22:29;3.70;;;2.17;;
72924;SDS011;61070;50.794;7.054;2023-06-14T08:24:58;4.90;;;2.08;;
72924;SDS011;61070;50.794;7.054;2023-06-14T08:27:24;7.15;;;2.33;;
72924;SDS011;61070;50.794;7.054;2023-06-14T08:29:49;5.57;;;2.40;;
72924;SDS011;61070;50.794;7.054;2023-06-14T08:32:15;4.40;;;1.80;;
72924;SDS011;61070;50.794;7.054;2023-06-14T08:34:40;2.42;;;1.67;;
72924;SDS011;61070;50.794;7.054;2023-06-14T08:37:05;2.10;;;1.30;;
72924;SDS011;61070;50.794;7.054;2023-06-14T08:39:31;9.65;;;1.90;;
72924;SDS011;61070;50.794;7.054;2023-06-14T08:41:57;2.83;;;1.77;;
72924;SDS011;61070;50.794;7.054;2023-06-14T08:44:23;2.33;;;1.77;;
72924;SDS011;61070;50.794;7.054;2023-06-14T08:46:48;8.50;;;1.83;;
72924;SDS011;61070;50.794;7.054;2023-06-14T08:49:16;2.10;;;1.42;;
72924;SDS011;61070;50.794;7.054;2023-06-14T08:51:42;4.60;;;1.42;;
72924;SDS011;61070;50.794;7.054;2023-06-14T08:54:08;2.22;;;1.50;;
72924;SDS011;61070;50.794;7.054;2023-06-14T08:56:36;2.50;;;1.80;;
72924;SDS011;61070;50.794;7.054;2023-06-14T08:59:03;5.72;;;2.00;;
72924;SDS011;61070;50.794;7.054;2023-06-14T09:01:33;6.13;;;1.98;;
72924;SDS011;61070;50.794;7.054;2023-06-14T09:03:59;2.58;;;1.88;;
72924;SDS011;61070;50.794;7.054;2023-06-14T09:06:25;6.60;;;1.70;;
72924;SDS011;61070;50.794;7.054;2023-06-14T09:08:53;2.97;;;1.75;;
72924;SDS011;61070;50.794;7.054;2023-06-14T09:11:22;6.80;;;1.88;;
72924;SDS011;61070;50.794;7.054;2023-06-14T09:13:48;2.60;;;1.90;;
72924;SDS011;61070;50.794;7.054;2023-06-14T09:16:14;6.82;;;1.92;;
72924;SDS011;61070;50.794;7.054;2023-06-14T09:18:43;3.08;;;1.67;;
72924;SDS011;61070;50.794;7.054;2023-06-14T09:21:10;5.00;;;1.90;;
72924;SDS011;61070;50.794;7.054;2023-06-14T09:23:39;3.10;;;1.92;;
72924;SDS011;61070;50.794;7.054;2023-06-14T09:26:09;6.78;;;1.77;;
72924;SDS011;61070;50.794;7.054;2023-06-14T09:28:35;2.53;;;1.55;;
72924;SDS011;61070;50.794;7.054;2023-06-14T09:31:01;3.33;;;1.90;;
72924;SDS011;61070;50.794;7.054;2023-06-14T09:33:27;5.97;;;1.95;;
72924;SDS011;61070;50.794;7.054;2023-06-14T09:35:55;5.20;;;1.92;;
72924;SDS011;61070;50.794;7.054;2023-06-14T09:38:20;8.98;;;1.85;;
72924;SDS011;61070;50.794;7.054;2023-06-14T09:40:46;2.95;;;1.95;;
72924;SDS011;61070;50.794;7.054;2023-06-14T09:43:11;2.13;;;1.75;;
72924;SDS011;61070;50.794;7.054;2023-06-14T09:45:37;4.32;;;1.95;;
72924;SDS011;61070;50.794;7.054;2023-06-14T09:48:04;2.70;;;2.05;;
72924;SDS011;61070;50.794;7.054;2023-06-14T09:50:32;12.65;;;1.67;;
72924;SDS011;61070;50.794;7.054;2023-06-14T09:52:59;3.10;;;1.88;;
72924;SDS011;61070;50.794;7.054;2023-06-14T09:55:30;10.70;;;2.90;;
72924;SDS011;61070;50.794;7.054;2023-06-14T09:57:56;6.35;;;2.15;;
72924;SDS011;61070;50.794;7.054;2023-06-14T10:00:22;2.70;;;1.90;;
72924;SDS011;61070;50.794;7.054;2023-06-14T10:02:54;2.67;;;1.50;;
72924;SDS011;61070;50.794;7.054;2023-06-14T10:05:28;4.28;;;2.30;;
72924;SDS011;61070;50.794;7.054;2023-06-14T10:08:03;3.40;;;2.10;;
72924;SDS011;61070;50.794;7.054;2023-06-14T10:10:32;2.25;;;1.83;;
72924;SDS011;61070;50.794;7.054;2023-06-14T10:12:58;3.40;;;1.88;;
72924;SDS011;61070;50.794;7.054;2023-06-14T10:15:28;6.53;;;2.13;;
72924;SDS011;61070;50.794;7.054;2023-06-14T10:23:46;2.70;;;1.65;;
72924;SDS011;61070;50.794;7.054;2023-06-14T10:26:23;4.65;;;1.77;;
72924;SDS011;61070;50.794;7.054;2023-06-14T10:28:55;2.25;;;1.83;;
72924;SDS011;61070;50.794;7.054;2023-06-14T10:31:23;4.15;;;1.90;;
72924;SDS011;61070;50.794;7.054;2023-06-14T10:33:49;4.68;;;1.98;;
72924;SDS011;61070;50.794;7.054;2023-06-14T10:38:56;3.13;;;1.63;;
72924;SDS011;61070;50.794;7.054;2023-06-14T10:41:40;3.53;;;2.10;;
72924;SDS011;61070;50.794;7.054;2023-06-14T10:46:37;2.50;;;1.40;;
72924;SDS011;61070;50.794;7.054;2023-06-14T10:49:11;4.22;;;2.00;;
72924;SDS011;61070;50.794;7.054;2023-06-14T10:51:40;2.45;;;1.73;;
72924;SDS011;61070;50.794;7.054;2023-06-14T10:54:11;2.42;;;1.75;;
72924;SDS011;61070;50.794;7.054;2023-06-14T10:56:38;2.40;;;1.67;;
72924;SDS011;61070;50.794;7.054;2023-06-14T10:59:17;2.63;;;1.63;;
72924;SDS011;61070;50.794;7.054;2023-06-14T11:04:50;5.50;;;1.67;;
72924;SDS011;61070;50.794;7.054;2023-06-14T11:10:14;6.22;;;2.03;;
72924;SDS011;61070;50.794;7.054;2023-06-14T11:13:01;2.90;;;2.08;;
72924;SDS011;61070;50.794;7.054;2023-06-14T11:15:30;1.73;;;1.55;;
72924;SDS011;61070;50.794;7.054;2023-06-14T11:17:56;2.00;;;1.30;;
72924;SDS011;61070;50.794;7.054;2023-06-14T11:20:24;4.70;;;1.98;;
72924;SDS011;61070;50.794;7.054;2023-06-14T11:22:51;3.55;;;2.13;;
72924;SDS011;61070;50.794;7.054;2023-06-14T11:25:17;4.15;;;2.42;;
72924;SDS011;61070;50.794;7.054;2023-06-14T11:27:42;3.53;;;1.92;;
72924;SDS011;61070;50.794;7.054;2023-06-14T11:30:08;3.50;;;1.73;;
72924;SDS011;61070;50.794;7.054;2023-06-14T11:32:36;2.30;;;1.67;;
72924;SDS011;61070;50.794;7.054;2023-06-14T11:35:02;2.35;;;1.70;;
72924;SDS011;61070;50.794;7.054;2023-06-14T11:37:29;3.08;;;1.52;;
72924;SDS011;61070;50.794;7.054;2023-06-14T11:39:56;2.83;;;1.80;;
72924;SDS011;61070;50.794;7.054;2023-06-14T11:42:22;3.92;;;1.73;;
72924;SDS011;61070;50.794;7.054;2023-06-14T11:44:48;6.28;;;1.80;;
72924;SDS011;61070;50.794;7.054;2023-06-14T11:47:14;5.22;;;1.80;;
72924;SDS011;61070;50.794;7.054;2023-06-14T11:49:39;5.53;;;2.05;;
72924;SDS011;61070;50.794;7.054;2023-06-14T11:52:05;3.45;;;1.45;;
72924;SDS011;61070;50.794;7.054;2023-06-14T11:54:31;6.90;;;2.00;;
72924;SDS011;61070;50.794;7.054;2023-06-14T11:56:57;4.05;;;1.73;;
72924;SDS011;61070;50.794;7.054;2023-06-14T11:59:23;6.15;;;1.67;;
72924;SDS011;61070;50.794;7.054;2023-06-14T12:01:49;3.53;;;1.60;;
72924;SDS011;61070;50.794;7.054;2023-06-14T12:04:22;1.95;;;1.50;;
72924;SDS011;61070;50.794;7.054;2023-06-14T12:06:48;3.53;;;1.60;;
72924;SDS011;61070;50.794;7.054;2023-06-14T12:09:14;7.20;;;1.88;;
72924;SDS011;61070;50.794;7.054;2023-06-14T12:11:43;3.45;;;1.20;;
72924;SDS011;61070;50.794;7.054;2023-06-14T12:14:08;1.90;;;1.17;;
72924;SDS011;61070;50.794;7.054;2023-06-14T12:16:34;1.50;;;1.15;;
72924;SDS011;61070;50.794;7.054;2023-06-14T12:21:38;2.72;;;0.98;;
72924;SDS011;61070;50.794;7.054;2023-06-14T12:24:07;3.28;;;1.40;;
72924;SDS011;61070;50.794;7.054;2023-06-14T12:26:33;1.75;;;1.17;;
72924;SDS011;61070;50.794;7.054;2023-06-14T12:28:58;2.92;;;1.20;;
72924;SDS011;61070;50.794;7.054;2023-06-14T12:31:24;1.73;;;1.15;;
72924;SDS011;61070;50.794;7.054;2023-06-14T12:33:50;1.98;;;1.42;;
72924;SDS011;61070;50.794;7.054;2023-06-14T12:36:16;4.10;;;1.10;;
72924;SDS011;61070;50.794;7.054;2023-06-14T12:38:42;3.38;;;1.40;;
72924;SDS011;61070;50.794;7.054;2023-06-14T12:41:07;3.78;;;1.10;;
72924;SDS011;61070;50.794;7.054;2023-06-14T12:43:33;2.55;;;1.05;;
72924;SDS011;61070;50.794;7.054;2023-06-14T12:45:58;3.20;;;1.30;;
72924;SDS011;61070;50.794;7.054;2023-06-14T12:48:24;4.63;;;1.20;;
72924;SDS011;61070;50.794;7.054;2023-06-14T12:50:52;3.17;;;1.55;;
72924;SDS011;61070;50.794;7.054;2023-06-14T12:53:17;4.50;;;1.03;;
72924;SDS011;61070;50.794;7.054;2023-06-14T12:55:42;1.60;;;1.10;;
72924;SDS011;61070;50.794;7.054;2023-06-14T12:58:08;2.28;;;1.60;;
72924;SDS011;61070;50.794;7.054;2023-06-14T13:00:33;2.10;;;0.75;;
72924;SDS011;61070;50.794;7.054;2023-06-14T13:02:58;1.73;;;1.15;;
72924;SDS011;61070;50.794;7.054;2023-06-14T13:05:24;3.60;;;1.10;;
72924;SDS011;61070;50.794;7.054;2023-06-14T13:07:49;3.65;;;1.67;;
72924;SDS011;61070;50.794;7.054;2023-06-14T13:10:15;3.65;;;1.58;;
72924;SDS011;61070;50.794;7.054;2023-06-14T13:12:41;1.75;;;1.15;;
72924;SDS011;61070;50.794;7.054;2023-06-14T13:15:07;2.05;;;1.15;;
72924;SDS011;61070;50.794;7.054;2023-06-14T13:17:33;3.60;;;1.13;;
72924;SDS011;61070;50.794;7.054;2023-06-14T13:20:03;5.10;;;1.20;;
72924;SDS011;61070;50.794;7.054;2023-06-14T13:22:32;1.80;;;1.13;;
72924;SDS011;61070;50.794;7.054;2023-06-14T13:24:57;3.78;;;1.33;;
72924;SDS011;61070;50.794;7.054;2023-06-14T13:27:23;3.72;;;1.45;;
72924;SDS011;61070;50.794;7.054;2023-06-14T13:29:49;6.50;;;1.85;;
72924;SDS011;61070;50.794;7.054;2023-06-14T13:32:14;3.33;;;1.50;;
72924;SDS011;61070;50.794;7.054;2023-06-14T13:34:40;5.45;;;1.45;;
72924;SDS011;61070;50.794;7.054;2023-06-14T13:37:05;4.95;;;1.55;;
72924;SDS011;61070;50.794;7.054;2023-06-14T13:39:30;2.58;;;1.38;;
72924;SDS011;61070;50.794;7.054;2023-06-14T13:41:56;3.63;;;1.73;;
72924;SDS011;61070;50.794;7.054;2023-06-14T13:44:21;7.93;;;1.70;;
72924;SDS011;61070;50.794;7.054;2023-06-14T13:46:47;3.88;;;1.90;;
72924;SDS011;61070;50.794;7.054;2023-06-14T13:49:12;2.38;;;1.80;;
72924;SDS011;61070;50.794;7.054;2023-06-14T13:51:37;3.78;;;1.73;;
72924;SDS011;61070;50.794;7.054;2023-06-14T13:54:03;3.22;;;2.08;;
72924;SDS011;61070;50.794;7.054;2023-06-14T13:56:28;4.65;;;2.22;;
72924;SDS011;61070;50.794;7.054;2023-06-14T13:58:55;5.25;;;2.03;;
72924;SDS011;61070;50.794;7.054;2023-06-14T14:01:20;3.25;;;1.67;;
72924;SDS011;61070;50.794;7.054;2023-06-14T14:03:46;3.83;;;2.05;;
72924;SDS011;61070;50.794;7.054;2023-06-14T14:06:12;2.60;;;1.80;;
72924;SDS011;61070;50.794;7.054;2023-06-14T14:08:38;4.32;;;1.77;;
72924;SDS011;61070;50.794;7.054;2023-06-14T14:11:04;2.40;;;1.65;;
72924;SDS011;61070;50.794;7.054;2023-06-14T14:13:31;2.28;;;1.67;;
72924;SDS011;61070;50.794;7.054;2023-06-14T14:15:56;4.13;;;1.70;;
72924;SDS011;61070;50.794;7.054;2023-06-14T14:18:21;2.03;;;1.60;;
72924;SDS011;61070;50.794;7.054;2023-06-14T14:20:47;2.50;;;2.03;;
72924;SDS011;61070;50.794;7.054;2023-06-14T14:23:13;1.95;;;1.45;;
72924;SDS011;61070;50.794;7.054;2023-06-14T14:25:38;4.32;;;1.90;;
72924;SDS011;61070;50.794;7.054;2023-06-14T14:28:03;6.60;;;1.60;;
72924;SDS011;61070;50.794;7.054;2023-06-14T14:30:29;3.38;;;2.20;;
72924;SDS011;61070;50.794;7.054;2023-06-14T14:32:54;2.22;;;1.42;;
72924;SDS011;61070;50.794;7.054;2023-06-14T14:35:20;3.15;;;1.80;;
72924;SDS011;61070;50.794;7.054;2023-06-14T14:37:47;6.40;;;2.00;;
72924;SDS011;61070;50.794;7.054;2023-06-14T14:40:12;2.63;;;1.90;;
72924;SDS011;61070;50.794;7.054;2023-06-14T14:42:38;5.15;;;2.05;;
72924;SDS011;61070;50.794;7.054;2023-06-14T14:45:03;2.37;;;1.50;;
72924;SDS011;61070;50.794;7.054;2023-06-14T14:47:29;3.80;;;1.80;;
72924;SDS011;61070;50.794;7.054;2023-06-14T14:49:54;2.27;;;1.70;;
72924;SDS011;61070;50.794;7.054;2023-06-14T14:52:20;7.35;;;2.13;;
72924;SDS011;61070;50.794;7.054;2023-06-14T14:54:45;2.22;;;1.65;;
72924;SDS011;61070;50.794;7.054;2023-06-14T14:57:10;5.47;;;1.60;;
72924;SDS011;61070;50.794;7.054;2023-06-14T14:59:36;2.97;;;1.70;;